Time;durP1;ratioP1;P1;durP2;ratioP2;P2;SDS_P1;SDS_P2;PMS_P1;PMS_P2;Temp;Humidity;BMP_temperature;BMP_pressure;BME280_temperature;BME280_humidity;BME280_pressure;Samples;Min_cycle;Max_cycle;Signal;HPM_P1;HPM_P2
2021/08/11 00:00:30;;;;;;;5.35;4.40;;;21.40;67.40;;;;;;10413939;28;20056;-57
2021/08/11 00:05:30;;;;;;;4.90;4.00;;;21.40;67.40;;;;;;10418614;28;20091;-58
2021/08/11 00:10:31;;;;;;;5.00;3.88;;;21.40;67.30;;;;;;10417905;28;20033;-57
2021/08/11 00:15:32;;;;;;;5.70;3.95;;;21.40;67.40;;;;;;10416780;28;20424;-57
2021/08/11 00:20:34;;;;;;;5.35;3.72;;;21.40;67.20;;;;;;10417515;28;20413;-57
2021/08/11 00:25:35;;;;;;;6.22;3.97;;;21.40;67.10;;;;;;10417577;28;20033;-57
2021/08/11 00:30:36;;;;;;;4.85;3.80;;;21.40;67.00;;;;;;10417226;28;20076;-57
2021/08/11 00:35:36;;;;;;;5.00;3.65;;;21.40;66.90;;;;;;10420821;28;20029;-57
2021/08/11 00:40:38;;;;;;;4.60;3.65;;;21.40;67.00;;;;;;10416588;28;20482;-57
2021/08/11 00:45:39;;;;;;;4.75;3.63;;;21.40;66.90;;;;;;10416161;28;20417;-57
2021/08/11 00:50:41;;;;;;;5.20;3.72;;;21.30;66.70;;;;;;10416734;28;20033;-57
2021/08/11 00:55:42;;;;;;;7.60;3.90;;;21.40;67.30;;;;;;10416500;28;20401;-57
2021/08/11 01:00:47;;;;;;;4.75;3.45;;;21.40;66.70;;;;;;10416247;28;20124;-57
2021/08/11 01:05:50;;;;;;;6.55;3.58;;;21.30;66.60;;;;;;10415074;28;20405;-57
2021/08/11 01:10:52;;;;;;;4.22;3.00;;;21.30;66.60;;;;;;10414783;28;20033;-57
2021/08/11 01:15:54;;;;;;;5.07;3.53;;;21.30;66.50;;;;;;10415429;28;20386;-57
2021/08/11 01:21:28;;;;;;;5.47;3.53;;;21.30;66.40;;;;;;10415403;28;20041;-57
2021/08/11 01:27:06;;;;;;;3.65;3.17;;;21.30;66.30;;;;;;10415646;28;20156;-57
2021/08/11 01:32:45;;;;;;;4.70;3.58;;;21.30;66.20;;;;;;10418188;28;20061;-57
2021/08/11 01:37:51;;;;;;;7.00;4.45;;;21.30;66.20;;;;;;10407155;28;20076;-57
2021/08/11 01:42:54;;;;;;;4.55;3.60;;;21.30;66.20;;;;;;10423086;28;20091;-57
2021/08/11 01:47:59;;;;;;;6.35;3.88;;;21.20;66.00;;;;;;10430019;28;20029;-57
2021/08/11 01:53:01;;;;;;;4.18;3.50;;;21.20;66.10;;;;;;10414618;28;20026;-57
2021/08/11 01:58:03;;;;;;;4.70;3.80;;;21.30;66.10;;;;;;10400171;28;20142;-57
2021/08/11 02:03:04;;;;;;;5.20;4.20;;;21.20;65.90;;;;;;10416949;28;20109;-57
2021/08/11 02:08:09;;;;;;;4.30;3.55;;;21.20;65.90;;;;;;10429694;28;20040;-57
2021/08/11 02:13:11;;;;;;;4.72;3.50;;;21.20;65.80;;;;;;10411733;28;20196;-56
2021/08/11 02:18:11;;;;;;;4.90;3.78;;;21.20;65.80;;;;;;10414180;28;20572;-57
2021/08/11 02:23:12;;;;;;;5.20;3.97;;;21.20;65.70;;;;;;10412534;28;20034;-57
2021/08/11 02:28:29;;;;;;;5.95;4.30;;;21.20;65.70;;;;;;10414424;28;20030;-57
2021/08/11 02:34:02;;;;;;;5.57;3.70;;;21.20;65.60;;;;;;10421123;28;20359;-57
2021/08/11 02:39:13;;;;;;;3.85;3.30;;;21.20;65.60;;;;;;10413732;28;20057;-56
2021/08/11 02:44:20;;;;;;;4.78;3.60;;;21.20;65.60;;;;;;10406595;28;20116;-57
2021/08/11 02:49:29;;;;;;;4.63;3.75;;;21.10;65.70;;;;;;10412132;28;20382;-57
2021/08/11 02:54:30;;;;;;;4.13;2.88;;;21.20;65.50;;;;;;10415028;28;20470;-57
2021/08/11 02:59:31;;;;;;;4.85;3.28;;;21.10;65.50;;;;;;10419863;28;20032;-58
2021/08/11 03:04:32;;;;;;;5.13;3.28;;;21.10;65.70;;;;;;10420814;28;20037;-57
2021/08/11 03:09:34;;;;;;;4.55;3.53;;;21.10;65.30;;;;;;10420392;28;20412;-57
2021/08/11 03:14:42;;;;;;;4.72;3.22;;;21.10;65.30;;;;;;10420502;28;20033;-57
2021/08/11 03:19:44;;;;;;;5.35;3.53;;;21.10;65.30;;;;;;10435178;28;20033;-57
2021/08/11 03:24:45;;;;;;;4.55;3.45;;;21.10;66.00;;;;;;10420040;28;20065;-58
2021/08/11 03:29:46;;;;;;;4.53;3.85;;;21.10;65.30;;;;;;10419495;28;20489;-57
2021/08/11 03:34:46;;;;;;;5.80;4.18;;;21.10;65.20;;;;;;10428447;28;20448;-57
2021/08/11 03:39:47;;;;;;;4.80;3.55;;;21.00;65.20;;;;;;10419496;28;20475;-58
2021/08/11 03:44:47;;;;;;;6.00;3.80;;;21.00;65.10;;;;;;10418977;28;20065;-57
2021/08/11 03:49:50;;;;;;;4.97;3.90;;;21.00;65.10;;;;;;10419145;28;20057;-57
2021/08/11 03:54:51;;;;;;;4.50;3.83;;;21.00;65.10;;;;;;10415765;28;20052;-57
2021/08/11 03:59:51;;;;;;;4.47;3.63;;;21.00;65.10;;;;;;10408423;28;20121;-56
2021/08/11 04:04:52;;;;;;;5.28;3.88;;;21.00;65.80;;;;;;10417926;28;20037;-55
2021/08/11 04:09:53;;;;;;;6.13;4.90;;;21.00;65.30;;;;;;10414713;28;20041;-57
2021/08/11 04:14:53;;;;;;;5.75;4.68;;;21.00;65.30;;;;;;10417257;28;20100;-56
2021/08/11 04:19:54;;;;;;;5.18;4.30;;;21.00;65.30;;;;;;10416448;28;20030;-57
2021/08/11 04:24:55;;;;;;;5.15;4.53;;;20.90;65.40;;;;;;10416776;28;20026;-58
2021/08/11 04:29:55;;;;;;;5.95;4.75;;;21.00;65.40;;;;;;10417457;28;20030;-57
2021/08/11 04:34:56;;;;;;;4.97;4.28;;;21.00;65.50;;;;;;10421480;28;20037;-57
2021/08/11 04:39:57;;;;;;;5.13;4.55;;;21.00;65.50;;;;;;10415813;28;20065;-57
2021/08/11 04:44:57;;;;;;;6.22;4.50;;;21.00;65.50;;;;;;10409757;28;20411;-57
2021/08/11 04:49:58;;;;;;;6.18;4.47;;;21.00;65.60;;;;;;10408236;28;20105;-57
2021/08/11 04:55:04;;;;;;;5.30;4.28;;;20.90;65.50;;;;;;10410982;28;20040;-57
2021/08/11 05:00:05;;;;;;;5.28;4.30;;;20.90;65.60;;;;;;10414336;28;20544;-57
2021/08/11 05:05:07;;;;;;;4.97;4.28;;;20.90;65.60;;;;;;10415930;28;20037;-57
2021/08/11 05:10:09;;;;;;;6.28;4.53;;;20.90;65.60;;;;;;10415329;28;20014;-57
2021/08/11 05:15:10;;;;;;;8.02;4.10;;;20.90;66.20;;;;;;10414582;28;20037;-59
2021/08/11 05:20:13;;;;;;;7.55;5.40;;;20.90;66.80;;;;;;10414059;28;20020;-59
2021/08/11 05:25:13;;;;;;;7.85;4.97;;;20.90;67.30;;;;;;10412015;28;20238;-58
2021/08/11 05:30:14;;;;;;;6.78;4.43;;;21.00;67.50;;;;;;10411240;28;20561;-58
2021/08/11 05:35:15;;;;;;;19.17;5.18;;;21.00;67.40;;;;;;10413989;28;20126;-58
2021/08/11 05:40:18;;;;;;;11.10;5.00;;;21.00;68.10;;;;;;10414063;28;20056;-58
2021/08/11 05:45:19;;;;;;;13.30;4.88;;;21.10;68.20;;;;;;10414495;28;20065;-58
2021/08/11 05:50:20;;;;;;;9.20;4.55;;;21.10;68.20;;;;;;10414809;28;20056;-58
2021/08/11 05:55:21;;;;;;;16.75;4.70;;;21.10;68.20;;;;;;10415889;28;20021;-58
2021/08/11 06:00:21;;;;;;;15.35;4.55;;;21.10;68.00;;;;;;10412440;28;20381;-57
2021/08/11 06:05:22;;;;;;;10.63;4.85;;;21.10;68.30;;;;;;10413912;28;20076;-57
2021/08/11 06:10:23;;;;;;;6.38;4.35;;;21.10;68.20;;;;;;10414285;28;20426;-57
2021/08/11 06:15:24;;;;;;;7.13;4.03;;;21.10;68.10;;;;;;10407879;28;20413;-56
2021/08/11 06:20:25;;;;;;;6.75;4.40;;;21.00;68.00;;;;;;10381847;28;20036;-57
2021/08/11 06:25:26;;;;;;;9.32;4.13;;;21.00;68.10;;;;;;10406974;28;20053;-55
2021/08/11 06:30:26;;;;;;;13.98;5.35;;;21.00;68.20;;;;;;10412987;28;20063;-57
2021/08/11 06:35:27;;;;;;;10.60;4.82;;;21.00;68.50;;;;;;10421450;28;20064;-56
2021/08/11 06:40:28;;;;;;;16.90;4.70;;;21.00;68.50;;;;;;10414952;28;20064;-56
2021/08/11 06:45:29;;;;;;;9.13;4.57;;;21.00;68.80;;;;;;10412780;28;20029;-56
2021/08/11 06:50:30;;;;;;;13.30;5.63;;;21.00;68.80;;;;;;10413859;28;20037;-57
2021/08/11 06:55:30;;;;;;;16.17;4.82;;;21.00;69.20;;;;;;10405410;28;20033;-56
2021/08/11 07:00:31;;;;;;;13.90;5.65;;;21.00;69.30;;;;;;10406448;28;20038;-57
2021/08/11 07:05:32;;;;;;;13.63;5.35;;;21.00;69.30;;;;;;10428677;28;20033;-57
2021/08/11 07:10:32;;;;;;;9.50;4.35;;;21.00;69.10;;;;;;10413600;28;20037;-57
2021/08/11 07:15:33;;;;;;;9.68;3.92;;;21.00;69.20;;;;;;10412656;28;20116;-56
2021/08/11 07:20:34;;;;;;;8.43;4.25;;;21.00;69.20;;;;;;10413480;28;20033;-56
2021/08/11 07:25:35;;;;;;;17.80;4.90;;;21.00;69.60;;;;;;10412362;28;20033;-57
2021/08/11 07:30:36;;;;;;;13.07;4.57;;;21.00;69.70;;;;;;10411992;28;20048;-56
2021/08/11 07:35:38;;;;;;;8.82;5.10;;;21.10;69.60;;;;;;10411281;28;20037;-55
2021/08/11 07:40:41;;;;;;;9.73;4.93;;;21.00;69.60;;;;;;10411433;28;20060;-56
2021/08/11 07:45:42;;;;;;;12.32;5.07;;;21.00;69.50;;;;;;10412271;28;20037;-56
2021/08/11 07:50:43;;;;;;;12.18;4.97;;;21.00;69.50;;;;;;10412066;28;20145;-56
2021/08/11 07:55:43;;;;;;;9.73;4.57;;;21.10;69.50;;;;;;10410846;28;20037;-56
2021/08/11 08:00:44;;;;;;;9.32;4.22;;;21.00;69.40;;;;;;10411344;28;20029;-55
2021/08/11 08:05:45;;;;;;;7.05;4.18;;;21.10;69.50;;;;;;10410766;28;20092;-55
2021/08/11 08:10:45;;;;;;;6.88;4.40;;;21.10;69.50;;;;;;10411325;28;20808;-56
2021/08/11 08:15:49;;;;;;;8.75;4.65;;;21.10;69.50;;;;;;10409093;28;20098;-56
2021/08/11 08:20:55;;;;;;;7.65;4.30;;;21.10;69.40;;;;;;10426440;28;20397;-55
2021/08/11 08:25:55;;;;;;;6.13;3.97;;;21.10;69.40;;;;;;10410635;28;20045;-55
2021/08/11 08:30:56;;;;;;;7.38;4.25;;;21.10;70.10;;;;;;10412837;28;20485;-56
2021/08/11 08:35:57;;;;;;;6.57;4.10;;;21.10;69.50;;;;;;10416653;28;20652;-56
2021/08/11 08:40:58;;;;;;;10.18;5.75;;;21.10;69.50;;;;;;10410083;28;20076;-56
2021/08/11 08:46:00;;;;;;;6.80;4.43;;;21.10;69.40;;;;;;10408831;28;20034;-56
2021/08/11 08:51:04;;;;;;;9.77;5.00;;;21.20;69.50;;;;;;10425123;28;20025;-56
2021/08/11 08:56:05;;;;;;;8.02;4.88;;;21.20;69.50;;;;;;10405116;28;20052;-55
2021/08/11 09:01:06;;;;;;;7.35;5.72;;;21.20;69.50;;;;;;10409399;28;20083;-56
2021/08/11 09:06:07;;;;;;;9.70;6.35;;;21.10;69.50;;;;;;10409016;28;20040;-56
2021/08/11 09:11:15;;;;;;;10.63;6.90;;;21.10;69.50;;;;;;10409355;28;20383;-56
2021/08/11 09:16:15;;;;;;;7.15;5.10;;;21.10;69.40;;;;;;10397674;28;20041;-55
2021/08/11 09:21:16;;;;;;;6.43;4.43;;;21.10;69.50;;;;;;10409010;28;20104;-56
2021/08/11 09:26:17;;;;;;;6.20;4.75;;;21.10;69.60;;;;;;10408624;28;20034;-56
2021/08/11 09:31:27;;;;;;;7.32;5.35;;;21.10;69.60;;;;;;10390461;28;20405;-56
2021/08/11 09:36:48;;;;;;;9.90;4.20;;;21.10;69.60;;;;;;10407930;28;20044;-55
2021/08/11 09:42:04;;;;;;;10.35;4.68;;;21.20;69.80;;;;;;10412783;28;20136;-53
2021/08/11 09:47:14;;;;;;;14.18;4.88;;;21.20;70.40;;;;;;10403451;28;20121;-56
2021/08/11 09:52:15;;;;;;;11.82;5.13;;;21.30;70.60;;;;;;10406741;28;20433;-56
2021/08/11 09:57:30;;;;;;;19.65;6.80;;;21.30;70.40;;;;;;10383735;28;20128;-54
2021/08/11 10:02:30;;;;;;;11.25;5.22;;;21.30;70.30;;;;;;10400494;28;20049;-56
2021/08/11 10:07:31;;;;;;;11.77;4.35;;;21.30;70.40;;;;;;10388094;28;20133;-55
2021/08/11 10:12:34;;;;;;;6.45;4.50;;;21.30;70.40;;;;;;10413758;28;20485;-56
2021/08/11 10:17:35;;;;;;;11.10;5.53;;;21.30;70.40;;;;;;10405030;28;20083;-56
2021/08/11 10:22:43;;;;;;;9.52;5.13;;;21.40;70.70;;;;;;10408066;28;20049;-56
2021/08/11 10:27:44;;;;;;;7.95;4.78;;;21.40;70.40;;;;;;10385790;28;20040;-57
2021/08/11 10:32:45;;;;;;;9.23;4.53;;;21.40;70.60;;;;;;10406342;28;20041;-57
2021/08/11 10:37:46;;;;;;;8.77;3.85;;;21.40;71.00;;;;;;10405316;28;20037;-56
2021/08/11 10:42:56;;;;;;;9.63;5.22;;;21.40;71.10;;;;;;10405575;28;20049;-57
2021/08/11 10:47:57;;;;;;;8.65;4.82;;;21.40;71.00;;;;;;10406677;28;20029;-57
2021/08/11 10:53:08;;;;;;;9.43;4.60;;;21.40;71.00;;;;;;10405031;28;20053;-57
2021/08/11 10:58:09;;;;;;;9.00;3.97;;;21.40;71.10;;;;;;10406435;28;20035;-57
2021/08/11 11:03:30;;;;;;;8.48;4.13;;;21.50;71.30;;;;;;10404576;28;20549;-57
2021/08/11 11:08:32;;;;;;;8.80;4.13;;;21.50;71.10;;;;;;10407513;28;20524;-57
2021/08/11 11:13:33;;;;;;;9.38;4.30;;;21.60;71.00;;;;;;10421585;28;20112;-58
2021/08/11 11:18:34;;;;;;;8.60;4.22;;;21.60;70.70;;;;;;10404293;28;20124;-58
2021/08/11 11:23:42;;;;;;;7.35;4.22;;;21.60;70.60;;;;;;10412185;28;20520;-58
2021/08/11 11:28:56;;;;;;;9.25;3.72;;;21.70;70.50;;;;;;10402765;28;20056;-55
2021/08/11 11:34:30;;;;;;;8.07;4.15;;;21.60;70.40;;;;;;10406329;28;20517;-58
2021/08/11 11:39:40;;;;;;;6.15;4.50;;;21.70;70.20;;;;;;10400611;28;20456;-59
2021/08/11 11:44:48;;;;;;;6.15;3.67;;;21.60;70.20;;;;;;10413545;28;20052;-58
2021/08/11 11:50:32;;;;;;;6.15;4.57;;;21.60;70.10;;;;;;10404135;28;20037;-56
2021/08/11 11:55:43;;;;;;;7.93;4.57;;;21.60;70.00;;;;;;10409075;28;20033;-58
2021/08/11 12:00:57;;;;;;;6.65;4.18;;;21.60;70.00;;;;;;10410747;28;20037;-59
2021/08/11 12:05:58;;;;;;;5.85;3.72;;;21.60;70.20;;;;;;10410210;28;20057;-59
2021/08/11 12:11:09;;;;;;;5.47;4.15;;;21.60;70.10;;;;;;10410024;28;20112;-58
2021/08/11 12:16:13;;;;;;;5.47;3.63;;;21.60;70.00;;;;;;10392238;28;20522;-59
2021/08/11 12:21:17;;;;;;;4.25;3.33;;;21.60;69.90;;;;;;10415403;28;20030;-59
2021/08/11 12:26:18;;;;;;;5.53;3.70;;;21.60;69.90;;;;;;10415705;28;20026;-59
2021/08/11 12:31:33;;;;;;;5.88;3.65;;;21.60;69.60;;;;;;10430932;28;20456;-59
2021/08/11 12:36:35;;;;;;;5.07;3.47;;;21.60;69.80;;;;;;10417718;28;20045;-58
2021/08/11 12:41:39;;;;;;;5.05;3.42;;;21.70;69.70;;;;;;10416178;28;20549;-59
2021/08/11 12:46:43;;;;;;;4.72;3.30;;;21.70;69.40;;;;;;10416084;28;20044;-59
2021/08/11 12:51:44;;;;;;;4.55;3.38;;;21.80;69.40;;;;;;10422513;28;20490;-59
2021/08/11 12:56:59;;;;;;;5.32;3.65;;;21.80;69.30;;;;;;10415238;28;20033;-59
2021/08/11 13:01:59;;;;;;;5.78;4.05;;;21.70;69.00;;;;;;10413144;28;20026;-59
2021/08/11 13:07:05;;;;;;;4.45;3.00;;;21.80;69.20;;;;;;10430160;28;20148;-59
2021/08/11 13:12:08;;;;;;;6.65;3.22;;;21.80;69.00;;;;;;10408795;28;20116;-56
2021/08/11 13:17:09;;;;;;;7.10;3.22;;;21.80;69.00;;;;;;10413687;28;20110;-57
2021/08/11 13:22:23;;;;;;;4.50;3.30;;;21.80;68.90;;;;;;10415239;28;20175;-56
2021/08/11 13:27:25;;;;;;;4.88;3.67;;;21.90;68.80;;;;;;10415476;28;20034;-57
2021/08/11 13:32:27;;;;;;;4.05;3.17;;;21.80;68.60;;;;;;10424099;28;20076;-56
2021/08/11 13:37:29;;;;;;;5.68;3.30;;;21.80;68.50;;;;;;10415212;28;20049;-59
2021/08/11 13:42:29;;;;;;;5.20;3.92;;;21.90;68.60;;;;;;10410587;28;20034;-55
2021/08/11 13:47:30;;;;;;;4.15;3.13;;;21.80;68.40;;;;;;10409274;28;20021;-57
2021/08/11 13:52:31;;;;;;;4.90;3.47;;;21.90;68.40;;;;;;10403293;28;20113;-57
2021/08/11 13:57:33;;;;;;;4.80;2.90;;;21.90;68.20;;;;;;10404764;28;20486;-56
2021/08/11 14:02:34;;;;;;;4.32;3.30;;;21.90;68.30;;;;;;10413446;28;20100;-57
2021/08/11 14:07:35;;;;;;;4.35;2.92;;;21.90;68.30;;;;;;10419927;28;20026;-56
2021/08/11 14:12:36;;;;;;;4.45;3.60;;;21.90;68.20;;;;;;10413789;28;20034;-57
2021/08/11 14:17:36;;;;;;;4.13;3.15;;;21.90;68.20;;;;;;10420528;28;20132;-59
2021/08/11 14:22:37;;;;;;;5.13;3.42;;;21.80;67.90;;;;;;10412816;28;20041;-57
2021/08/11 14:27:38;;;;;;;4.97;2.88;;;21.80;68.10;;;;;;10406085;28;20462;-56
2021/08/11 14:32:38;;;;;;;4.82;3.30;;;21.80;68.00;;;;;;10421983;28;20116;-57
2021/08/11 14:37:39;;;;;;;3.75;2.83;;;21.80;68.10;;;;;;10413750;28;20068;-60
2021/08/11 14:42:40;;;;;;;3.80;3.20;;;21.80;68.20;;;;;;10412998;28;20052;-56
2021/08/11 14:47:41;;;;;;;5.63;3.28;;;21.80;68.10;;;;;;10413673;28;20120;-57
2021/08/11 14:52:42;;;;;;;4.82;3.20;;;21.80;68.00;;;;;;10418656;28;20500;-59
2021/08/11 14:57:42;;;;;;;4.72;3.15;;;21.80;68.20;;;;;;10406835;28;20102;-59
2021/08/11 15:02:43;;;;;;;5.07;2.92;;;21.80;68.20;;;;;;10420269;28;20049;-57
2021/08/11 15:07:44;;;;;;;4.68;3.63;;;21.80;67.90;;;;;;10419374;28;20108;-59
2021/08/11 15:12:46;;;;;;;7.18;3.17;;;21.80;68.30;;;;;;10420183;28;20048;-58
2021/08/11 15:17:47;;;;;;;7.18;4.40;;;21.80;68.40;;;;;;10435895;28;20080;-58
2021/08/11 15:22:48;;;;;;;6.18;3.45;;;21.80;69.00;;;;;;10435315;28;20037;-58
2021/08/11 15:27:49;;;;;;;143.50;117.57;;;21.80;68.40;;;;;;10412874;28;20061;-58
2021/08/11 15:32:50;;;;;;;51.53;31.30;;;21.90;70.50;;;;;;10427582;28;20034;-57
2021/08/11 15:37:50;;;;;;;41.70;25.98;;;22.00;70.10;;;;;;10419968;28;20025;-57
2021/08/11 15:42:51;;;;;;;29.80;19.75;;;22.00;69.30;;;;;;10415352;28;20052;-58
2021/08/11 15:47:52;;;;;;;32.83;18.38;;;22.10;69.60;;;;;;10419328;28;20469;-56
2021/08/11 15:52:52;;;;;;;24.38;15.27;;;22.10;70.00;;;;;;10417758;28;20108;-57
2021/08/11 15:57:53;;;;;;;23.40;15.60;;;22.20;69.60;;;;;;10418626;28;20128;-56
2021/08/11 16:02:54;;;;;;;21.83;11.73;;;22.30;70.70;;;;;;10418085;28;20405;-57
2021/08/11 16:07:56;;;;;;;17.17;11.15;;;22.30;68.30;;;;;;10418633;28;20067;-58
2021/08/11 16:12:57;;;;;;;13.60;10.15;;;22.30;68.80;;;;;;10408558;28;20068;-56
2021/08/11 16:17:57;;;;;;;16.15;9.45;;;22.30;69.50;;;;;;10418315;28;20040;-57
2021/08/11 16:22:59;;;;;;;10.60;7.82;;;22.30;69.00;;;;;;10406641;28;20091;-56
2021/08/11 16:27:59;;;;;;;9.15;7.80;;;22.40;68.50;;;;;;10417318;28;20431;-58
2021/08/11 16:33:00;;;;;;;8.57;6.28;;;22.30;67.50;;;;;;10424930;28;20029;-58
2021/08/11 16:38:01;;;;;;;6.93;5.30;;;22.30;67.30;;;;;;10407473;28;20108;-58
2021/08/11 16:43:01;;;;;;;6.05;4.72;;;22.20;66.60;;;;;;10416212;28;20478;-58
2021/08/11 16:48:03;;;;;;;7.60;5.25;;;22.20;65.50;;;;;;10416699;28;20064;-59
2021/08/11 16:53:03;;;;;;;5.80;4.75;;;22.20;65.70;;;;;;10415794;28;20022;-59
2021/08/11 16:58:04;;;;;;;5.80;4.15;;;22.10;65.30;;;;;;10416561;28;20025;-59
2021/08/11 17:03:05;;;;;;;7.30;5.03;;;22.10;65.80;;;;;;10416198;28;20037;-60
2021/08/11 17:08:05;;;;;;;6.75;3.95;;;22.10;66.20;;;;;;10411980;28;20071;-59
2021/08/11 17:13:07;;;;;;;6.13;4.07;;;22.10;66.40;;;;;;10415226;28;20459;-56
2021/08/11 17:18:07;;;;;;;5.65;4.22;;;22.10;66.20;;;;;;10415202;28;20124;-56
2021/08/11 17:23:08;;;;;;;6.22;3.63;;;22.10;66.30;;;;;;10414736;28;20045;-59
2021/08/11 17:28:09;;;;;;;5.28;4.03;;;22.10;66.20;;;;;;10410001;28;20513;-56
2021/08/11 17:33:09;;;;;;;5.47;3.70;;;22.10;66.20;;;;;;10416312;28;20033;-59
2021/08/11 17:38:10;;;;;;;9.88;4.35;;;22.10;66.50;;;;;;10414882;28;20572;-59
2021/08/11 17:43:11;;;;;;;7.38;4.55;;;22.10;66.70;;;;;;10414347;28;20096;-58
2021/08/11 17:48:11;;;;;;;5.85;3.50;;;22.20;67.40;;;;;;10414977;28;20374;-58
2021/08/11 17:53:13;;;;;;;7.53;4.28;;;22.20;67.90;;;;;;10415003;28;20056;-56
2021/08/11 17:58:14;;;;;;;5.03;4.32;;;22.20;67.30;;;;;;10401181;28;20057;-60
2021/08/11 18:03:15;;;;;;;6.63;4.40;;;22.20;67.30;;;;;;10413928;28;20124;-56
2021/08/11 18:08:16;;;;;;;6.43;4.32;;;22.10;67.50;;;;;;10414134;28;20426;-59
2021/08/11 18:13:16;;;;;;;5.50;4.45;;;22.10;67.70;;;;;;10413611;28;20056;-58
2021/08/11 18:18:17;;;;;;;7.45;4.28;;;22.20;67.90;;;;;;10411022;28;20124;-59
2021/08/11 18:23:18;;;;;;;10.25;4.25;;;22.10;67.60;;;;;;10408545;28;20037;-59
2021/08/11 18:28:20;;;;;;;8.65;3.55;;;22.10;68.20;;;;;;10414929;28;20037;-59
2021/08/11 18:33:21;;;;;;;6.20;3.65;;;22.10;68.40;;;;;;10414539;28;20034;-60
2021/08/11 18:38:21;;;;;;;8.27;3.83;;;22.10;68.60;;;;;;10416804;28;20096;-59
2021/08/11 18:43:22;;;;;;;6.43;3.05;;;22.10;68.70;;;;;;10417437;28;20128;-59
2021/08/11 18:48:23;;;;;;;7.18;3.78;;;22.10;68.80;;;;;;10414833;28;20065;-59
2021/08/11 18:53:24;;;;;;;6.93;3.17;;;22.10;68.90;;;;;;10417555;28;20461;-59
2021/08/11 18:58:24;;;;;;;6.32;3.30;;;22.10;68.90;;;;;;10413567;28;20112;-55
2021/08/11 19:03:25;;;;;;;5.53;3.55;;;22.10;69.00;;;;;;10416011;28;20117;-56
2021/08/11 19:08:27;;;;;;;4.40;3.03;;;22.10;69.10;;;;;;10418729;28;20022;-56
2021/08/11 19:13:28;;;;;;;5.45;3.20;;;22.10;69.10;;;;;;10418212;28;20378;-56
2021/08/11 19:18:28;;;;;;;4.60;3.42;;;22.10;69.10;;;;;;10419207;28;20029;-56
2021/08/11 19:23:29;;;;;;;4.93;3.63;;;22.10;69.30;;;;;;10413943;28;20518;-56
2021/08/11 19:28:30;;;;;;;6.28;3.85;;;22.20;69.30;;;;;;10425242;28;20028;-56
2021/08/11 19:33:31;;;;;;;6.90;3.60;;;22.10;69.30;;;;;;10418870;28;20017;-56
2021/08/11 19:38:32;;;;;;;7.68;3.58;;;22.10;69.40;;;;;;10417179;28;20025;-56
2021/08/11 19:43:34;;;;;;;4.95;3.38;;;22.10;69.40;;;;;;10418259;28;20039;-56
2021/08/11 19:48:35;;;;;;;4.13;2.92;;;22.10;69.40;;;;;;10415571;28;20518;-55
2021/08/11 19:53:38;;;;;;;8.45;4.22;;;22.10;69.40;;;;;;10405262;28;20064;-57
2021/08/11 19:58:39;;;;;;;6.47;3.92;;;22.20;69.50;;;;;;10417002;28;20025;-57
2021/08/11 20:03:40;;;;;;;5.55;3.78;;;22.20;70.00;;;;;;10413952;28;20128;-57
2021/08/11 20:08:40;;;;;;;5.05;4.07;;;22.10;69.30;;;;;;10415715;28;20040;-56
2021/08/11 20:13:43;;;;;;;5.43;3.80;;;22.10;69.30;;;;;;10416024;28;20060;-56
2021/08/11 20:18:43;;;;;;;4.63;3.35;;;22.10;69.30;;;;;;10415959;28;20029;-56
2021/08/11 20:23:44;;;;;;;5.57;3.65;;;22.10;69.30;;;;;;10416132;28;20065;-55
2021/08/11 20:28:46;;;;;;;7.35;3.85;;;22.10;69.20;;;;;;10415245;28;20053;-56
2021/08/11 20:33:49;;;;;;;5.50;3.67;;;22.10;69.20;;;;;;10430178;28;20449;-56
2021/08/11 20:38:49;;;;;;;6.13;3.88;;;22.00;69.20;;;;;;10416980;28;20068;-57
2021/08/11 20:43:50;;;;;;;4.40;3.38;;;22.00;69.20;;;;;;10417385;28;20462;-57
2021/08/11 20:48:51;;;;;;;7.13;3.78;;;22.00;69.20;;;;;;10416682;28;20116;-56
2021/08/11 20:53:52;;;;;;;5.68;4.13;;;22.00;69.10;;;;;;10416792;28;20116;-56
2021/08/11 20:58:53;;;;;;;3.97;3.15;;;22.00;69.10;;;;;;10415540;28;20120;-55
2021/08/11 21:03:54;;;;;;;4.03;3.30;;;22.00;69.10;;;;;;10416563;28;20060;-56
2021/08/11 21:08:55;;;;;;;5.00;3.53;;;22.00;69.20;;;;;;10416154;28;20516;-56
2021/08/11 21:13:55;;;;;;;4.43;3.72;;;22.00;69.20;;;;;;10416328;28;20064;-56
2021/08/11 21:18:56;;;;;;;6.32;3.70;;;22.00;69.20;;;;;;10415784;28;20039;-56
2021/08/11 21:23:57;;;;;;;9.07;3.45;;;22.00;69.20;;;;;;10415768;28;20037;-56
2021/08/11 21:28:57;;;;;;;5.03;3.60;;;22.00;69.20;;;;;;10415421;28;20060;-56
2021/08/11 21:33:58;;;;;;;4.05;3.28;;;22.00;69.20;;;;;;10427658;28;20033;-56
2021/08/11 21:38:59;;;;;;;4.95;3.70;;;22.00;69.20;;;;;;10414418;28;20049;-56
2021/08/11 21:43:59;;;;;;;4.95;3.78;;;22.00;69.10;;;;;;10415059;28;20025;-57
2021/08/11 21:49:00;;;;;;;5.85;3.67;;;22.00;69.10;;;;;;10414785;28;20057;-56
2021/08/11 21:54:00;;;;;;;5.07;3.88;;;22.00;69.10;;;;;;10414881;28;20541;-56
2021/08/11 21:59:01;;;;;;;5.05;3.53;;;21.90;69.00;;;;;;10413919;28;20080;-56
2021/08/11 22:04:02;;;;;;;5.32;3.97;;;21.90;69.10;;;;;;10414158;28;20111;-57
2021/08/11 22:09:03;;;;;;;5.43;3.78;;;21.90;69.00;;;;;;10414186;28;20036;-57
2021/08/11 22:14:04;;;;;;;5.22;3.72;;;21.90;68.90;;;;;;10414492;28;20071;-56
2021/08/11 22:19:05;;;;;;;4.45;3.28;;;21.90;69.10;;;;;;10414221;28;20482;-56
2021/08/11 22:24:05;;;;;;;4.53;3.30;;;21.90;69.10;;;;;;10413953;28;20065;-57
2021/08/11 22:29:06;;;;;;;4.70;3.33;;;21.90;69.00;;;;;;10413920;28;20060;-57
2021/08/11 22:34:07;;;;;;;4.70;3.42;;;21.90;69.00;;;;;;10426833;28;20416;-56
2021/08/11 22:39:07;;;;;;;5.50;3.90;;;21.90;69.10;;;;;;10413449;28;20041;-56
2021/08/11 22:44:08;;;;;;;4.40;3.60;;;21.90;69.00;;;;;;10412737;28;20385;-57
2021/08/11 22:49:09;;;;;;;5.32;3.83;;;21.90;69.00;;;;;;10412334;28;20158;-56
2021/08/11 22:54:09;;;;;;;4.22;3.17;;;21.90;68.90;;;;;;10413589;28;20057;-57
2021/08/11 22:59:10;;;;;;;4.82;3.28;;;21.90;68.90;;;;;;10412999;28;20033;-57
2021/08/11 23:04:12;;;;;;;3.90;3.03;;;21.90;68.90;;;;;;10413418;28;20033;-56
2021/08/11 23:09:13;;;;;;;5.15;3.78;;;21.90;68.80;;;;;;10413200;28;20021;-56
2021/08/11 23:14:14;;;;;;;5.35;4.05;;;21.80;68.70;;;;;;10419022;28;20471;-56
2021/08/11 23:19:15;;;;;;;5.47;3.47;;;21.80;68.60;;;;;;10420851;28;20112;-56
2021/08/11 23:24:15;;;;;;;4.70;3.45;;;21.80;68.60;;;;;;10420009;28;20033;-56
2021/08/11 23:29:16;;;;;;;5.45;4.00;;;21.80;68.60;;;;;;10420281;28;20030;-56
2021/08/11 23:34:17;;;;;;;4.53;3.28;;;21.80;68.60;;;;;;10432884;28;20039;-57
2021/08/11 23:39:17;;;;;;;3.95;3.42;;;21.80;68.50;;;;;;10419656;28;20227;-57
2021/08/11 23:44:18;;;;;;;4.28;3.20;;;21.80;68.50;;;;;;10419474;28;20030;-56
2021/08/11 23:49:19;;;;;;;3.38;3.08;;;21.80;68.50;;;;;;10419578;28;20052;-57
2021/08/11 23:54:19;;;;;;;4.45;3.75;;;21.80;68.40;;;;;;10419070;28;20097;-57
2021/08/11 23:59:20;;;;;;;4.18;3.55;;;21.80;68.40;;;;;;10409281;28;20117;-57
